Stations météo

Publicité
Kinbrace, Grande-Bretagne (99016): Température de l'air & dewpoint: 13.10.2018 21:00:00 - 19.10.2018 21:00:00 (BST)Kinbrace, Grande-Bretagne (99016): Vitesse du vent & gusts: 13.10.2018 21:00:00 - 19.10.2018 21:00:00 (BST)Kinbrace, Grande-Bretagne (99016): Direction du vent: 13.10.2018 21:00:00 - 19.10.2018 21:00:00 (BST)Kinbrace, Grande-Bretagne (99016): Quantités de précipitations: 13.10.2018 21:00:00 - 19.10.2018 21:00:00 (BST)
Date & Time tt [°C] td [°C] ff [km/h] ff [knt] fx [km/h] fx [knt] dd rr [mm]
19.10.2018 21:00:00 - - - - - - - -
19.10.2018 20:00:00 6,0 3,8 5 3 - - E 0,0
19.10.2018 19:00:00 6,8 3,4 2 1 - - NW 0,0
19.10.2018 18:00:00 8,4 4,4 11 6 - - WNW 0,0
19.10.2018 17:00:00 9,7 5,1 18 10 - - WNW 0,0
19.10.2018 16:00:00 11,4 5,6 21 11 - - NW 0,0
19.10.2018 15:00:00 10,5 6,8 18 10 - - WNW 0,0
19.10.2018 14:00:00 12,7 6,3 18 10 - - W 0,0
19.10.2018 13:00:00 11,9 8,2 18 10 - - WNW 0,0
19.10.2018 12:00:00 9,5 8,3 11 6 - - WSW 0,2
19.10.2018 11:00:00 10,0 8,1 9 5 - - SSW 0,0
19.10.2018 10:00:00 9,6 5,4 11 6 - - SE 0,0
19.10.2018 09:00:00 9,1 4,7 24 13 - - SSE 0,0
19.10.2018 08:00:00 8,5 3,8 28 15 - - S 0,0
19.10.2018 07:00:00 8,0 3,7 18 10 - - SSE 0,2
19.10.2018 06:00:00 8,1 4,6 15 8 - - SE 0,0
19.10.2018 05:00:00 8,1 4,2 21 11 - - SSE 0,0
19.10.2018 04:00:00 8,4 4,3 21 11 - - SSE 0,0
19.10.2018 03:00:00 8,4 4,2 21 11 - - SSE 0,0
19.10.2018 02:00:00 8,4 4,3 24 13 - - SSE 0,0
19.10.2018 01:00:00 7,6 4,6 21 11 - - SSE 0,0
19.10.2018 00:00:00 7,8 5,1 21 11 - - SE 0,0
18.10.2018 23:00:00 8,0 5,6 21 11 - - SSE 0,0
18.10.2018 22:00:00 7,6 5,2 5 3 - - S 0,0
18.10.2018 21:00:00 7,5 4,7 8 4 - - S 0,0
18.10.2018 20:00:00 8,4 4,9 5 3 - - SSE 0,0
18.10.2018 19:00:00 8,4 5,3 13 7 - - SSE 0,0
18.10.2018 18:00:00 9,4 5,5 13 7 - - SE 0,0
18.10.2018 17:00:00 9,9 5,7 16 9 - - SSE 0,0
18.10.2018 16:00:00 10,4 6,1 13 7 - - S 0,0
18.10.2018 15:00:00 10,8 4,6 13 7 - - SSW 0,0
18.10.2018 14:00:00 9,8 5,6 11 6 - - S 0,0
18.10.2018 13:00:00 10,2 5,4 11 6 - - SW 0,0
18.10.2018 12:00:00 9,7 5,3 11 6 - - SSW 0,0
18.10.2018 11:00:00 8,5 5,5 9 5 - - SSE 0,0
18.10.2018 10:00:00 7,2 5,7 9 5 - - SSW 0,0
18.10.2018 09:00:00 7,6 5,4 11 6 - - WSW 0,0
18.10.2018 08:00:00 7,2 5,2 9 5 - - S 0,0
18.10.2018 07:00:00 7,6 5,1 9 5 - - WSW 0,0
18.10.2018 06:00:00 5,8 4,4 5 3 - - SE 0,0
18.10.2018 05:00:00 4,4 3,2 4 2 - - SSE 0,0
18.10.2018 04:00:00 4,7 3,4 4 2 - - S 0,0
18.10.2018 03:00:00 4,1 2,6 2 1 - - NNW 0,0
18.10.2018 02:00:00 4,3 2,3 8 4 - - SW 0,0
18.10.2018 01:00:00 6,0 3,9 11 6 - - W 0,0
18.10.2018 00:00:00 5,0 3,1 11 6 - - S 0,0
17.10.2018 23:00:00 5,9 4,0 11 6 - - SSE 0,0
17.10.2018 22:00:00 7,0 4,2 5 3 - - SSE 0,0
17.10.2018 21:00:00 6,4 4,0 9 5 - - E 0,0
17.10.2018 20:00:00 7,3 3,1 16 9 - - W 0,0
17.10.2018 19:00:00 5,5 3,2 16 9 - - W 0,0
17.10.2018 18:00:00 6,4 3,5 11 6 - - W 0,0
17.10.2018 17:00:00 8,7 5,0 18 10 - - W 0,0
17.10.2018 16:00:00 10,3 4,2 22 12 - - W 0,0
17.10.2018 15:00:00 10,0 7,4 16 9 - - WNW 0,6
17.10.2018 14:00:00 10,2 4,3 22 12 - - WSW 0,0
17.10.2018 13:00:00 10,1 5,5 24 13 - - W 0,0
17.10.2018 12:00:00 9,3 5,4 21 11 - - WSW 0,0
17.10.2018 11:00:00 9,9 5,1 16 9 - - WSW 0,0
17.10.2018 10:00:00 8,6 5,2 11 6 - - WSW 0,0
17.10.2018 09:00:00 6,9 4,1 5 3 - - S 0,0
17.10.2018 08:00:00 6,7 4,5 8 4 - - WNW 0,0
17.10.2018 07:00:00 5,2 3,6 13 7 - - SSW 0,0
17.10.2018 06:00:00 7,1 4,9 4 2 - - SSW 0,0
17.10.2018 05:00:00 6,7 4,3 8 4 - - S 0,0
17.10.2018 04:00:00 8,7 5,7 13 7 - - WSW 0,0
17.10.2018 03:00:00 8,5 7,0 11 6 - - WNW 0,0
17.10.2018 02:00:00 6,2 5,3 4 2 - - SSE 0,0
17.10.2018 01:00:00 6,4 5,6 8 4 - - E 0,0
17.10.2018 00:00:00 8,5 6,5 2 1 - - SSW 0,0
16.10.2018 23:00:00 10,0 7,8 2 1 - - S 0,0
16.10.2018 22:00:00 10,7 8,1 8 4 - - SSE 0,0
16.10.2018 21:00:00 11,3 7,6 5 3 - - WSW 0,0
16.10.2018 20:00:00 11,7 7,0 13 7 - - SSW 0,0
16.10.2018 19:00:00 11,4 6,5 15 8 - - S 0,0
16.10.2018 18:00:00 12,6 6,8 18 10 - - SSW 0,0
16.10.2018 17:00:00 13,2 6,6 24 13 - - SSW 0,0
16.10.2018 16:00:00 14,6 7,1 24 13 - - SSW 0,0
16.10.2018 15:00:00 13,1 8,1 24 13 50 27 S 0,0
16.10.2018 14:00:00 13,5 6,2 35 19 52 28 S 0,0
16.10.2018 13:00:00 12,0 5,9 34 18 63 34 SSE 0,0
16.10.2018 12:00:00 11,1 6,2 37 20 65 35 SSE 0,0
16.10.2018 11:00:00 10,3 6,2 46 25 68 37 SSE 0,0
16.10.2018 10:00:00 9,5 5,4 31 17 55 30 SE 0,0
16.10.2018 09:00:00 9,3 4,8 42 23 65 35 SSE 0,0
16.10.2018 08:00:00 8,9 4,3 35 19 52 28 S 0,0
16.10.2018 07:00:00 9,0 4,5 34 18 54 29 SSE 0,0
16.10.2018 06:00:00 9,3 4,6 29 16 46 25 SE 0,0
16.10.2018 05:00:00 9,0 4,3 18 10 - - SE 0,0
16.10.2018 04:00:00 9,0 4,4 21 11 - - SE 0,0
16.10.2018 03:00:00 8,8 4,5 24 13 - - SSE 0,0
16.10.2018 02:00:00 8,7 4,3 22 12 - - SE 0,0
16.10.2018 01:00:00 9,4 4,7 24 13 - - SE 0,0
16.10.2018 00:00:00 9,1 6,5 21 11 - - ESE 0,0
15.10.2018 23:00:00 9,8 6,0 18 10 - - SE 0,0
15.10.2018 22:00:00 8,9 6,2 11 6 - - SE 0,0
15.10.2018 21:00:00 7,9 5,8 2 1 - - ESE 0,0
15.10.2018 20:00:00 9,3 6,2 2 1 - - SW 0,0
15.10.2018 19:00:00 9,1 6,4 4 2 - - SE 0,0
15.10.2018 18:00:00 10,5 7,1 8 4 - - SE 0,0
15.10.2018 17:00:00 11,6 6,6 5 3 - - WSW 0,0
15.10.2018 16:00:00 12,0 6,2 13 7 - - W 0,0
15.10.2018 15:00:00 12,3 5,9 13 7 - - SW 0,0
15.10.2018 14:00:00 14,0 6,3 15 8 - - SW 0,0
15.10.2018 13:00:00 11,9 6,9 13 7 - - S 0,0
15.10.2018 12:00:00 12,3 6,5 16 9 - - SSW 0,0
15.10.2018 11:00:00 10,4 6,2 13 7 - - S 0,0
15.10.2018 10:00:00 9,3 4,7 13 7 - - SSE 0,0
15.10.2018 09:00:00 4,4 3,3 5 3 - - SE 0,0
15.10.2018 08:00:00 4,6 2,9 8 4 - - ESE 0,0
15.10.2018 07:00:00 5,2 3,2 8 4 - - S 0,0
15.10.2018 06:00:00 6,0 3,6 4 2 - - S 0,0
15.10.2018 05:00:00 5,4 3,3 8 4 - - SSW 0,0
15.10.2018 04:00:00 6,4 2,9 5 3 - - SW 0,0
15.10.2018 03:00:00 5,4 3,4 5 3 - - S 0,0
15.10.2018 02:00:00 4,4 2,9 4 2 - - S 0,0
15.10.2018 01:00:00 4,3 2,3 2 1 - - SE 0,0
15.10.2018 00:00:00 4,7 3,2 11 6 - - ESE 0,0
14.10.2018 23:00:00 5,4 3,6 13 7 - - E 0,0
14.10.2018 22:00:00 5,3 2,8 8 4 - - SSE 0,0
14.10.2018 21:00:00 4,7 4,0 4 2 - - ESE 0,0
14.10.2018 20:00:00 5,0 3,7 4 2 - - SSE 0,0
14.10.2018 19:00:00 6,1 4,1 2 1 - - SW 0,0
14.10.2018 18:00:00 8,4 5,2 11 6 - - SSE 0,0
14.10.2018 17:00:00 8,9 5,2 8 4 - - S 0,0
14.10.2018 16:00:00 11,2 4,5 11 6 - - SSW 0,0
14.10.2018 15:00:00 10,6 4,1 11 6 - - SSW 0,0
14.10.2018 14:00:00 10,5 4,4 8 4 - - SSW 0,0
14.10.2018 13:00:00 10,1 5,5 9 5 - - S 0,0
14.10.2018 12:00:00 8,2 5,4 9 5 - - S 0,0
14.10.2018 11:00:00 7,4 5,3 9 5 - - ESE 0,0
14.10.2018 10:00:00 6,9 5,2 8 4 - - SW 0,0
14.10.2018 09:00:00 5,8 5,1 4 2 - - SE 0,0
14.10.2018 08:00:00 5,8 5,0 4 2 - - SSW 0,2
14.10.2018 07:00:00 6,0 5,2 2 1 - - S 0,8
14.10.2018 06:00:00 6,1 5,7 2 1 - - NNW 0,2
14.10.2018 05:00:00 6,2 5,8 4 2 - - NNW 0,4
14.10.2018 04:00:00 6,6 5,9 15 8 - - NNW 1,0
14.10.2018 03:00:00 7,0 6,3 15 8 - - NW 0,0
14.10.2018 02:00:00 7,4 6,8 22 12 - - NNW 0,4
14.10.2018 01:00:00 8,0 7,5 18 10 - - NNW 0,4
14.10.2018 00:00:00 8,0 7,6 21 11 - - NNW 0,6
13.10.2018 23:00:00 8,3 8,0 18 10 - - N 1,8
13.10.2018 22:00:00 8,6 8,3 21 11 - - NNW 1,8
13.10.2018 21:00:00 8,7 8,3 16 9 - - NNW 1,0

tt = Température de l'air
td = dewpoint
ff = Vitesse du vent
fx = gusts
dd = Direction du vent
rr = Quantités de précipitations

stations d'obs. à proximité